Time;durP1;ratioP1;P1;durP2;ratioP2;P2;SDS_P1;SDS_P2;PMS_P1;PMS_P2;Temp;Humidity;BMP_temperature;BMP_pressure;BME280_temperature;BME280_humidity;BME280_pressure;Samples;Min_cycle;Max_cycle;Signal;HPM_P1;HPM_P2
2021/05/02 00:01:34;;;;;;;4.18;2.30;;;17.10;58.20;;;;;;5053456;28;20036;-71
2021/05/02 00:04:02;;;;;;;5.03;2.47;;;17.10;58.20;;;;;;5053784;28;20517;-71
2021/05/02 00:06:29;;;;;;;4.57;2.30;;;17.10;58.20;;;;;;5053365;28;20507;-72
2021/05/02 00:08:55;;;;;;;4.22;2.53;;;17.10;58.20;;;;;;5053946;28;20090;-71
2021/05/02 00:11:20;;;;;;;4.43;2.17;;;17.10;58.30;;;;;;5071375;28;20105;-71
2021/05/02 00:13:46;;;;;;;4.75;2.70;;;17.00;58.30;;;;;;5071420;28;20021;-71
2021/05/02 00:16:11;;;;;;;5.63;2.38;;;17.00;58.30;;;;;;5053303;28;20024;-71
2021/05/02 00:18:38;;;;;;;5.30;2.72;;;17.00;58.30;;;;;;5071062;28;20025;-71
2021/05/02 00:21:09;;;;;;;4.75;2.50;;;17.00;58.30;;;;;;5070070;28;20032;-71
2021/05/02 00:23:35;;;;;;;5.30;2.73;;;17.00;58.40;;;;;;5071497;28;20024;-72
2021/05/02 00:26:02;;;;;;;5.05;2.50;;;17.00;58.40;;;;;;5053370;28;20345;-71
2021/05/02 00:28:29;;;;;;;3.92;2.63;;;16.90;58.30;;;;;;5071256;28;20063;-71
2021/05/02 00:30:56;;;;;;;4.78;2.22;;;16.90;58.30;;;;;;5070910;28;20025;-71
2021/05/02 00:33:23;;;;;;;3.72;2.25;;;16.90;58.30;;;;;;5070892;28;20020;-71
2021/05/02 00:35:50;;;;;;;4.80;2.75;;;16.90;58.40;;;;;;5071185;28;20029;-70
2021/05/02 00:38:15;;;;;;;4.50;2.50;;;16.90;58.40;;;;;;5071083;28;20532;-71
2021/05/02 00:40:43;;;;;;;6.07;2.78;;;16.90;58.40;;;;;;5070882;28;20029;-71
2021/05/02 00:43:11;;;;;;;5.22;2.83;;;16.90;58.50;;;;;;5071046;28;20104;-71
2021/05/02 00:46:01;;;;;;;4.82;2.72;;;16.90;58.40;;;;;;5070705;28;20644;-70
2021/05/02 00:48:34;;;;;;;5.53;2.70;;;16.80;58.50;;;;;;5053223;28;20028;-71
2021/05/02 00:51:04;;;;;;;4.88;2.67;;;16.80;58.50;;;;;;5070861;28;20492;-70
2021/05/02 00:54:07;;;;;;;5.38;2.55;;;16.80;58.50;;;;;;5071364;28;20410;-71
2021/05/02 00:56:38;;;;;;;6.78;2.60;;;16.80;58.50;;;;;;5070680;28;20107;-71
2021/05/02 00:59:13;;;;;;;5.53;2.80;;;16.80;58.60;;;;;;5071163;28;20036;-71
2021/05/02 01:01:42;;;;;;;5.28;2.67;;;16.80;58.60;;;;;;5070563;28;20024;-71
2021/05/02 01:04:10;;;;;;;5.60;2.53;;;16.80;58.60;;;;;;5056275;28;20555;-71
2021/05/02 01:06:39;;;;;;;4.30;2.50;;;16.70;58.60;;;;;;5057073;28;20029;-71
2021/05/02 01:09:06;;;;;;;4.65;2.50;;;16.70;58.70;;;;;;5057252;28;20032;-71
2021/05/02 01:11:35;;;;;;;4.05;2.70;;;16.70;58.70;;;;;;5074485;28;20039;-71
2021/05/02 01:14:02;;;;;;;4.93;2.88;;;16.70;58.70;;;;;;5056824;28;20024;-71
2021/05/02 01:16:33;;;;;;;4.85;2.95;;;16.70;58.60;;;;;;5056834;28;20020;-71
2021/05/02 01:18:58;;;;;;;5.22;2.50;;;16.70;58.60;;;;;;5057043;28;20399;-71
2021/05/02 01:21:30;;;;;;;5.00;2.88;;;16.60;58.70;;;;;;5073904;28;20020;-71
2021/05/02 01:23:57;;;;;;;5.57;2.80;;;16.60;58.60;;;;;;5057019;28;20085;-71
2021/05/02 01:26:25;;;;;;;4.25;2.67;;;16.60;58.70;;;;;;5074511;28;20480;-71
2021/05/02 01:28:54;;;;;;;4.82;2.70;;;16.60;58.70;;;;;;5056848;28;20391;-71
2021/05/02 01:31:20;;;;;;;5.32;2.70;;;16.60;58.70;;;;;;5056491;28;20024;-71
2021/05/02 01:33:46;;;;;;;4.90;2.83;;;16.60;58.70;;;;;;5074181;28;20100;-71
2021/05/02 01:36:12;;;;;;;4.93;2.42;;;16.60;58.70;;;;;;5053161;28;20030;-71
2021/05/02 01:38:38;;;;;;;4.72;2.83;;;16.60;58.70;;;;;;5036768;28;20500;-71
2021/05/02 01:41:04;;;;;;;5.03;2.75;;;16.60;58.70;;;;;;5067355;28;20031;-71
2021/05/02 01:43:29;;;;;;;5.47;2.83;;;16.60;58.70;;;;;;5074273;28;20029;-71
2021/05/02 01:45:55;;;;;;;4.07;2.58;;;16.60;58.70;;;;;;5073943;28;20040;-72
2021/05/02 01:48:23;;;;;;;4.70;2.58;;;16.50;58.70;;;;;;5074254;28;20027;-71
2021/05/02 01:51:00;;;;;;;4.55;2.78;;;16.50;58.70;;;;;;5056091;28;20051;-71
2021/05/02 01:53:26;;;;;;;4.78;2.70;;;16.50;58.80;;;;;;5056509;28;20035;-71
2021/05/02 01:55:53;;;;;;;4.78;2.80;;;16.50;58.80;;;;;;5073583;28;20028;-71
2021/05/02 01:58:20;;;;;;;6.80;2.90;;;16.50;58.80;;;;;;5055972;28;20033;-71
2021/05/02 02:00:56;;;;;;;5.53;3.00;;;16.50;58.90;;;;;;5073863;28;20033;-71
2021/05/02 02:03:22;;;;;;;4.72;2.83;;;16.50;58.90;;;;;;5047641;28;20032;-70
2021/05/02 02:05:49;;;;;;;5.25;2.67;;;16.40;58.90;;;;;;5073923;28;20020;-71
2021/05/02 02:08:15;;;;;;;5.28;2.78;;;16.40;58.90;;;;;;5074192;28;20074;-72
2021/05/02 02:10:41;;;;;;;4.72;2.75;;;16.40;59.00;;;;;;5055503;28;20723;-71
2021/05/02 02:13:12;;;;;;;6.07;3.10;;;16.40;59.00;;;;;;5055242;28;20093;-70
2021/05/02 02:15:39;;;;;;;5.00;2.83;;;16.50;59.00;;;;;;5053517;28;20521;-72
2021/05/02 02:18:07;;;;;;;5.40;3.20;;;16.40;59.00;;;;;;5055932;28;20040;-70
2021/05/02 02:20:42;;;;;;;5.18;3.20;;;16.40;59.00;;;;;;5073835;28;20108;-72
2021/05/02 02:23:17;;;;;;;5.00;2.92;;;16.40;59.10;;;;;;5073569;28;20042;-71
2021/05/02 02:25:45;;;;;;;5.57;3.03;;;16.40;59.10;;;;;;5055412;28;20037;-71
2021/05/02 02:28:14;;;;;;;5.53;2.97;;;16.40;59.10;;;;;;5055475;28;20021;-70
2021/05/02 02:30:41;;;;;;;5.45;3.03;;;16.40;59.10;;;;;;5072878;28;20028;-70
2021/05/02 02:33:07;;;;;;;5.53;3.15;;;16.40;59.10;;;;;;5073189;28;20032;-70
2021/05/02 02:35:39;;;;;;;5.65;2.90;;;16.40;59.20;;;;;;5072584;28;20039;-71
2021/05/02 02:38:08;;;;;;;5.95;3.17;;;16.30;59.20;;;;;;5054531;28;20071;-72
2021/05/02 02:40:38;;;;;;;4.72;2.90;;;16.30;59.20;;;;;;5055283;28;20115;-72
2021/05/02 02:43:05;;;;;;;6.15;3.20;;;16.30;59.20;;;;;;5055215;28;20033;-70
2021/05/02 02:45:37;;;;;;;5.28;3.20;;;16.30;59.20;;;;;;5054939;28;20120;-71
2021/05/02 02:48:04;;;;;;;;;;;16.30;59.20;;;;;;5055441;28;20158;-70
2021/05/02 02:50:30;;;;;;;6.15;3.20;;;16.30;59.20;;;;;;5055151;28;19927;-71
2021/05/02 02:53:02;;;;;;;6.50;3.33;;;16.30;59.20;;;;;;5073090;28;20404;-70
2021/05/02 02:55:29;;;;;;;6.03;3.47;;;16.30;59.20;;;;;;5054468;28;20039;-71
2021/05/02 02:58:00;;;;;;;5.35;2.97;;;16.30;59.30;;;;;;5072891;28;20225;-71
2021/05/02 03:00:31;;;;;;;6.23;3.30;;;16.30;59.30;;;;;;5054230;28;20047;-72
2021/05/02 03:03:18;;;;;;;6.00;3.40;;;16.30;59.30;;;;;;5054711;28;20266;-71
2021/05/02 03:05:46;;;;;;;6.22;2.83;;;16.20;59.30;;;;;;5054959;28;20082;-71
2021/05/02 03:08:12;;;;;;;5.50;3.20;;;16.20;59.30;;;;;;5054806;28;20078;-71
2021/05/02 03:10:41;;;;;;;5.57;3.30;;;16.20;59.40;;;;;;5054683;28;20518;-71
2021/05/02 03:13:10;;;;;;;4.82;3.13;;;16.20;59.40;;;;;;5054656;28;20025;-72
2021/05/02 03:15:38;;;;;;;5.22;3.10;;;16.20;59.30;;;;;;5072210;28;20024;-70
2021/05/02 03:18:06;;;;;;;5.97;3.30;;;16.20;59.30;;;;;;5054626;28;20029;-71
2021/05/02 03:20:38;;;;;;;4.25;2.90;;;16.20;59.30;;;;;;5054446;28;20028;-71
2021/05/02 03:23:17;;;;;;;5.45;3.40;;;16.20;59.40;;;;;;5072628;28;20438;-71
2021/05/02 03:25:43;;;;;;;5.28;3.30;;;16.20;59.30;;;;;;5070951;28;20020;-70
2021/05/02 03:28:26;;;;;;;5.70;3.42;;;16.10;59.30;;;;;;5054379;28;20025;-71
2021/05/02 03:30:52;;;;;;;5.47;3.33;;;16.10;59.30;;;;;;5072057;28;20036;-72
2021/05/02 03:33:22;;;;;;;5.82;3.55;;;16.20;59.40;;;;;;5054471;28;20025;-72
2021/05/02 03:35:49;;;;;;;5.70;3.58;;;16.20;59.40;;;;;;5071353;28;20024;-72
2021/05/02 03:38:29;;;;;;;5.28;3.60;;;16.10;59.40;;;;;;5072066;28;20036;-71
2021/05/02 03:40:58;;;;;;;6.25;3.88;;;16.10;59.40;;;;;;5071955;28;20094;-71
2021/05/02 03:43:24;;;;;;;6.35;3.60;;;16.10;59.40;;;;;;5072111;28;20028;-72
2021/05/02 03:45:49;;;;;;;6.35;3.47;;;16.10;59.40;;;;;;5071543;28;20069;-72
2021/05/02 03:48:15;;;;;;;6.47;3.83;;;16.10;59.40;;;;;;5054169;28;20043;-71
2021/05/02 03:50:40;;;;;;;6.18;3.33;;;16.10;59.40;;;;;;5071577;28;20488;-72
2021/05/02 03:53:06;;;;;;;5.93;3.55;;;16.10;59.40;;;;;;5054210;28;20112;-71
2021/05/02 03:55:49;;;;;;;6.47;3.50;;;16.10;59.40;;;;;;5053312;28;20032;-72
2021/05/02 03:58:16;;;;;;;7.13;3.90;;;16.10;59.40;;;;;;5053564;28;20442;-71
2021/05/02 04:00:43;;;;;;;6.60;3.58;;;16.10;59.40;;;;;;5052943;28;20035;-71
2021/05/02 04:03:11;;;;;;;5.30;3.30;;;16.00;59.50;;;;;;5053851;28;20031;-72
2021/05/02 04:05:36;;;;;;;6.78;3.70;;;16.10;59.60;;;;;;5071587;28;20112;-71
2021/05/02 04:08:02;;;;;;;5.13;3.40;;;16.10;59.60;;;;;;5053214;28;20111;-71
2021/05/02 04:10:28;;;;;;;5.65;3.60;;;16.10;59.60;;;;;;5053866;28;20028;-72
2021/05/02 04:12:53;;;;;;;5.93;3.47;;;16.10;59.60;;;;;;5071307;28;20021;-71
2021/05/02 04:15:19;;;;;;;5.53;3.40;;;16.10;59.70;;;;;;5071494;28;20020;-70
2021/05/02 04:17:44;;;;;;;7.07;3.70;;;16.10;59.60;;;;;;5053573;28;20085;-71
2021/05/02 04:20:11;;;;;;;5.80;3.72;;;16.00;59.60;;;;;;5053382;28;20032;-71
2021/05/02 04:22:37;;;;;;;6.68;4.00;;;16.00;59.60;;;;;;5071631;28;20056;-71
2021/05/02 04:25:03;;;;;;;5.88;3.60;;;16.00;59.60;;;;;;5071079;28;20047;-71
2021/05/02 04:27:29;;;;;;;5.57;3.35;;;16.00;59.50;;;;;;5071277;28;20028;-71
2021/05/02 04:29:57;;;;;;;4.78;3.20;;;16.00;59.60;;;;;;5053360;28;20395;-71
2021/05/02 04:32:22;;;;;;;5.80;3.70;;;16.00;59.50;;;;;;5053219;28;20130;-71
2021/05/02 04:34:48;;;;;;;6.78;3.70;;;16.00;59.60;;;;;;5071198;28;20035;-71
2021/05/02 04:37:14;;;;;;;6.53;3.78;;;16.00;59.50;;;;;;5070441;28;20032;-71
2021/05/02 04:39:39;;;;;;;5.93;3.92;;;16.00;59.60;;;;;;5053008;28;20036;-70
2021/05/02 04:42:05;;;;;;;5.82;3.83;;;16.00;59.60;;;;;;5053455;28;20052;-71
2021/05/02 04:44:31;;;;;;;6.30;3.97;;;16.00;59.60;;;;;;5070483;28;20048;-71
2021/05/02 04:46:56;;;;;;;5.60;3.67;;;16.00;59.70;;;;;;5053516;28;20066;-71
2021/05/02 04:49:22;;;;;;;6.63;4.10;;;16.00;59.60;;;;;;5053103;28;20029;-71
2021/05/02 04:51:48;;;;;;;6.43;3.97;;;16.00;59.60;;;;;;5071262;28;20031;-71
2021/05/02 04:54:14;;;;;;;6.82;4.05;;;16.00;59.60;;;;;;5052751;28;20028;-72
2021/05/02 04:56:40;;;;;;;6.25;4.10;;;16.00;59.60;;;;;;5071170;28;20043;-71
2021/05/02 04:59:08;;;;;;;7.18;4.28;;;16.00;59.60;;;;;;5052710;28;20123;-71
2021/05/02 05:01:38;;;;;;;5.85;3.80;;;16.00;59.50;;;;;;5052568;28;20029;-71
2021/05/02 05:04:05;;;;;;;6.18;3.78;;;16.00;59.40;;;;;;5052818;28;20021;-70
2021/05/02 05:06:31;;;;;;;5.88;3.65;;;16.00;59.90;;;;;;5071167;28;20082;-72
2021/05/02 05:08:57;;;;;;;5.85;3.95;;;16.00;59.30;;;;;;5070928;28;20491;-71
2021/05/02 05:11:22;;;;;;;5.78;3.95;;;16.00;59.30;;;;;;5070864;28;20154;-70
2021/05/02 05:13:48;;;;;;;6.57;4.03;;;16.00;59.30;;;;;;5052847;28;20028;-71
2021/05/02 05:16:14;;;;;;;7.55;4.05;;;16.00;59.30;;;;;;5052654;28;20031;-71
2021/05/02 05:18:39;;;;;;;5.57;3.70;;;16.00;59.30;;;;;;5052917;28;20036;-70
2021/05/02 05:21:05;;;;;;;5.72;3.67;;;16.00;59.30;;;;;;5070960;28;20512;-71
2021/05/02 05:23:31;;;;;;;6.03;3.80;;;16.00;59.30;;;;;;5070348;28;20021;-71
2021/05/02 05:25:56;;;;;;;6.50;3.90;;;16.00;59.20;;;;;;5052601;28;20032;-71
2021/05/02 05:28:23;;;;;;;6.53;3.67;;;16.00;59.20;;;;;;5070939;28;20051;-71
2021/05/02 05:30:50;;;;;;;5.50;3.50;;;16.00;59.30;;;;;;5070527;28;20066;-71
2021/05/02 05:33:16;;;;;;;5.55;3.55;;;16.00;59.30;;;;;;5071050;28;20108;-71
2021/05/02 05:35:41;;;;;;;6.95;3.97;;;16.00;59.30;;;;;;5052980;28;20056;-71
2021/05/02 05:38:08;;;;;;;6.20;3.90;;;16.10;59.30;;;;;;5052258;28;20021;-71
2021/05/02 05:40:33;;;;;;;6.53;4.20;;;16.00;59.10;;;;;;5070545;28;20033;-71
2021/05/02 05:43:02;;;;;;;5.90;3.60;;;16.10;59.20;;;;;;5070670;28;20515;-71
2021/05/02 05:45:29;;;;;;;6.38;3.75;;;16.00;59.10;;;;;;5053502;28;20024;-71
2021/05/02 05:47:54;;;;;;;5.95;3.72;;;16.10;59.10;;;;;;5070602;28;20016;-71
2021/05/02 05:50:22;;;;;;;5.75;3.75;;;16.10;59.00;;;;;;5054921;28;20028;-71
2021/05/02 05:52:50;;;;;;;6.30;3.88;;;16.10;58.90;;;;;;5056173;28;20107;-72
2021/05/02 05:55:16;;;;;;;5.82;3.72;;;16.20;58.90;;;;;;5069441;28;20033;-72
2021/05/02 05:57:45;;;;;;;5.68;3.50;;;16.30;58.60;;;;;;5055349;28;20035;-72
2021/05/02 06:00:12;;;;;;;6.93;4.15;;;16.40;58.50;;;;;;5050268;28;20040;-71
2021/05/02 06:02:38;;;;;;;6.32;3.85;;;16.40;58.10;;;;;;5048629;28;20024;-71
2021/05/02 06:05:05;;;;;;;7.00;4.03;;;16.60;58.00;;;;;;5069774;28;20510;-70
2021/05/02 06:07:31;;;;;;;7.15;4.03;;;16.50;57.80;;;;;;5066706;28;20411;-71
2021/05/02 06:09:56;;;;;;;9.63;4.00;;;16.50;57.90;;;;;;5066485;28;20016;-72
2021/05/02 06:12:22;;;;;;;8.25;4.25;;;16.60;57.70;;;;;;5048627;28;20047;-72
2021/05/02 06:14:48;;;;;;;7.80;4.43;;;16.60;57.70;;;;;;5066641;28;20029;-70
2021/05/02 06:17:14;;;;;;;7.68;4.10;;;16.60;57.50;;;;;;5067859;28;20118;-71
2021/05/02 06:19:39;;;;;;;8.40;4.57;;;16.60;57.70;;;;;;5067780;28;20829;-71
2021/05/02 06:22:05;;;;;;;10.52;4.15;;;16.50;57.70;;;;;;5067290;28;20036;-72
2021/05/02 06:24:30;;;;;;;8.15;4.20;;;16.50;57.80;;;;;;5049655;28;20474;-71
2021/05/02 06:26:56;;;;;;;7.30;3.83;;;16.50;57.80;;;;;;5049389;28;20119;-71
2021/05/02 06:29:22;;;;;;;6.47;3.55;;;16.50;57.90;;;;;;5049567;28;20028;-71
2021/05/02 06:31:48;;;;;;;8.40;4.18;;;16.50;57.90;;;;;;5049291;28;20028;-71
2021/05/02 06:34:14;;;;;;;7.60;3.63;;;16.50;57.90;;;;;;5067178;28;20395;-71
2021/05/02 06:36:41;;;;;;;5.90;3.90;;;16.50;57.90;;;;;;5067393;28;20020;-71
2021/05/02 06:39:07;;;;;;;7.97;3.78;;;16.50;57.90;;;;;;5067266;28;20029;-71
2021/05/02 06:41:32;;;;;;;6.90;3.70;;;16.50;57.90;;;;;;5049132;28;20094;-72
2021/05/02 06:43:58;;;;;;;5.80;3.47;;;16.50;58.00;;;;;;5049284;28;20028;-71
2021/05/02 06:46:27;;;;;;;7.45;3.78;;;16.40;57.90;;;;;;5067152;28;20101;-71
2021/05/02 06:49:01;;;;;;;9.98;4.00;;;16.40;58.00;;;;;;5049026;28;20013;-72
2021/05/02 06:51:28;;;;;;;7.57;3.30;;;16.40;58.00;;;;;;5066888;28;20561;-71
2021/05/02 06:53:55;;;;;;;8.50;3.72;;;16.40;58.10;;;;;;5050645;28;20140;-71
2021/05/02 06:56:20;;;;;;;7.03;3.60;;;16.40;58.30;;;;;;5066583;28;20407;-70
2021/05/02 06:58:47;;;;;;;7.03;3.85;;;16.40;58.00;;;;;;5066319;28;20046;-71
2021/05/02 07:01:13;;;;;;;7.75;3.63;;;16.40;58.60;;;;;;5046858;28;20039;-71
2021/05/02 07:03:39;;;;;;;9.98;3.33;;;16.40;59.10;;;;;;5055951;28;20436;-71
2021/05/02 07:06:04;;;;;;;7.18;3.78;;;16.50;59.30;;;;;;5086980;28;20598;-71
2021/05/02 07:08:31;;;;;;;10.43;4.03;;;16.50;59.40;;;;;;5086853;28;20032;-73
2021/05/02 07:10:57;;;;;;;8.80;3.55;;;16.50;59.50;;;;;;5086678;28;20039;-72
2021/05/02 07:13:23;;;;;;;10.02;3.75;;;16.50;58.90;;;;;;5086946;28;20036;-71
2021/05/02 07:15:49;;;;;;;9.45;3.63;;;16.50;58.80;;;;;;5080160;28;20027;-71
2021/05/02 07:18:14;;;;;;;11.30;3.70;;;16.50;58.90;;;;;;5076202;28;20028;-71
2021/05/02 07:20:40;;;;;;;7.55;3.53;;;16.50;58.90;;;;;;5067014;28;20395;-71
2021/05/02 07:23:06;;;;;;;10.05;3.40;;;16.60;59.00;;;;;;5068368;28;20544;-71
2021/05/02 07:25:31;;;;;;;7.05;3.17;;;16.50;59.00;;;;;;5063399;28;20024;-75
2021/05/02 07:27:57;;;;;;;7.75;4.10;;;16.50;58.80;;;;;;5047860;28;20395;-70
2021/05/02 07:30:22;;;;;;;7.07;3.53;;;16.50;58.90;;;;;;5048057;28;20028;-71
2021/05/02 07:32:48;;;;;;;7.55;3.20;;;16.50;59.00;;;;;;5048283;28;20029;-71
2021/05/02 07:35:14;;;;;;;6.50;3.13;;;16.50;59.10;;;;;;5047767;28;20025;-71
2021/05/02 07:37:40;;;;;;;6.35;3.15;;;16.50;59.10;;;;;;5066184;28;20056;-72
2021/05/02 07:40:07;;;;;;;6.13;3.28;;;16.50;59.00;;;;;;5048120;28;20032;-71
2021/05/02 07:42:34;;;;;;;4.82;2.90;;;16.60;59.00;;;;;;5073371;28;20028;-71
2021/05/02 07:44:59;;;;;;;7.13;3.25;;;16.60;58.90;;;;;;5064390;28;20035;-70
2021/05/02 07:47:25;;;;;;;7.00;3.30;;;16.50;58.80;;;;;;5083158;28;20036;-72
2021/05/02 07:49:51;;;;;;;6.18;3.00;;;16.60;58.90;;;;;;5073343;28;20042;-72
2021/05/02 07:52:17;;;;;;;12.05;3.25;;;16.60;58.50;;;;;;5064683;28;20029;-70
2021/05/02 07:54:43;;;;;;;9.60;3.65;;;16.60;58.40;;;;;;5041791;28;20032;-73
2021/05/02 07:57:09;;;;;;;21.52;3.63;;;16.60;58.20;;;;;;5047242;28;20387;-70
2021/05/02 07:59:34;;;;;;;16.70;3.60;;;16.60;59.00;;;;;;5046747;28;20025;-72
2021/05/02 08:02:00;;;;;;;14.18;3.70;;;16.70;58.40;;;;;;5064530;28;20025;-73
2021/05/02 08:04:25;;;;;;;18.35;4.85;;;16.70;58.50;;;;;;5049521;28;20032;-73
2021/05/02 08:06:51;;;;;;;13.93;4.22;;;16.70;58.90;;;;;;5073307;28;20020;-73
2021/05/02 08:09:16;;;;;;;8.80;3.47;;;16.80;58.50;;;;;;5075371;28;20012;-73
2021/05/02 08:11:42;;;;;;;8.52;3.00;;;16.80;58.20;;;;;;5066364;28;20020;-73
2021/05/02 08:14:08;;;;;;;13.05;3.40;;;16.90;58.00;;;;;;5060510;28;20023;-75
2021/05/02 08:16:33;;;;;;;8.73;3.00;;;16.90;58.00;;;;;;5063965;28;20031;-71
2021/05/02 08:19:01;;;;;;;15.05;4.22;;;17.00;57.20;;;;;;5068431;28;20035;-71
2021/05/02 08:21:27;;;;;;;14.32;4.00;;;17.10;57.00;;;;;;5065575;28;20030;-72
2021/05/02 08:23:53;;;;;;;21.40;4.38;;;17.20;56.70;;;;;;5068324;28;20044;-72
2021/05/02 08:26:19;;;;;;;14.70;3.92;;;17.30;57.90;;;;;;5047057;28;20106;-71
2021/05/02 08:28:45;;;;;;;12.68;3.60;;;17.40;58.70;;;;;;5065305;28;20016;-71
2021/05/02 08:31:12;;;;;;;16.13;3.42;;;17.50;57.50;;;;;;5047307;28;20028;-72
2021/05/02 08:33:38;;;;;;;16.45;4.13;;;17.50;57.10;;;;;;5065226;28;20021;-72
2021/05/02 08:36:03;;;;;;;12.40;3.13;;;17.60;60.60;;;;;;5064332;28;20402;-73
2021/05/02 08:38:30;;;;;;;13.50;3.35;;;17.70;57.40;;;;;;5064965;28;20103;-72
2021/05/02 08:40:59;;;;;;;18.45;6.20;;;17.80;59.30;;;;;;5065007;28;20028;-72
2021/05/02 08:43:24;;;;;;;244.00;84.13;;;17.90;58.80;;;;;;5061099;28;20032;-71
2021/05/02 08:45:50;;;;;;;398.50;158.73;;;17.90;58.60;;;;;;5064122;28;20111;-71
2021/05/02 08:48:20;;;;;;;416.50;180.05;;;18.00;59.10;;;;;;5060940;28;20024;-72
2021/05/02 08:50:46;;;;;;;277.05;110.50;;;18.10;59.90;;;;;;5073411;28;20031;-77
2021/05/02 08:53:12;;;;;;;335.88;132.45;;;18.10;59.20;;;;;;5075981;28;20017;-74
2021/05/02 08:55:41;;;;;;;315.05;124.15;;;18.20;61.10;;;;;;5065663;28;20127;-71
2021/05/02 08:58:06;;;;;;;278.38;109.97;;;18.30;61.50;;;;;;5066012;28;20488;-71
2021/05/02 09:00:33;;;;;;;254.05;103.10;;;18.40;61.10;;;;;;5047676;28;20043;-72
2021/05/02 09:02:58;;;;;;;189.35;81.22;;;18.50;60.60;;;;;;5069157;28;20379;-72
2021/05/02 09:05:24;;;;;;;208.95;87.50;;;18.50;59.20;;;;;;5064657;28;20026;-76
2021/05/02 09:07:50;;;;;;;198.13;84.65;;;18.50;60.10;;;;;;5049585;28;20024;-75
2021/05/02 09:10:18;;;;;;;182.50;74.85;;;18.50;60.10;;;;;;5065448;28;20028;-75
2021/05/02 09:12:59;;;;;;;167.55;68.10;;;18.50;60.10;;;;;;5065141;28;20035;-72
2021/05/02 09:15:25;;;;;;;154.98;63.17;;;18.60;59.10;;;;;;5052853;28;20760;-73
2021/05/02 09:18:19;;;;;;;143.85;61.55;;;18.70;58.90;;;;;;5064773;28;20025;-71
2021/05/02 09:20:43;;;;;;;;;;;18.70;58.70;;;;;;5063731;28;20357;-70
2021/05/02 09:23:09;;;;;;;133.85;52.00;;;18.90;58.60;;;;;;5044991;28;19959;-72
2021/05/02 09:25:50;;;;;;;132.05;52.78;;;19.00;57.90;;;;;;5065694;28;20070;-71
2021/05/02 09:28:16;;;;;;;125.88;49.83;;;19.10;57.40;;;;;;5065845;28;20028;-72
2021/05/02 09:30:42;;;;;;;120.65;49.95;;;19.10;57.40;;;;;;5047913;28;20033;-77
2021/05/02 09:33:08;;;;;;;101.93;44.00;;;19.20;57.20;;;;;;5053575;28;20047;-75
2021/05/02 09:35:35;;;;;;;93.88;39.15;;;19.30;57.30;;;;;;5050337;28;20055;-73
2021/05/02 09:38:11;;;;;;;95.97;41.55;;;19.30;56.90;;;;;;5069017;28;20060;-77
2021/05/02 09:41:04;;;;;;;99.93;38.60;;;19.30;56.70;;;;;;5069555;28;20034;-74
2021/05/02 09:43:37;;;;;;;90.90;37.75;;;19.40;56.20;;;;;;5049464;28;20094;-74
2021/05/02 09:48:53;;;;;;;78.57;35.08;;;19.60;55.80;;;;;;5068556;28;20633;-76
2021/05/02 09:51:21;;;;;;;78.47;33.75;;;19.60;55.70;;;;;;5069527;28;20029;-75
2021/05/02 09:54:11;;;;;;;73.15;31.88;;;19.50;55.80;;;;;;5069626;28;20112;-74
2021/05/02 09:56:43;;;;;;;63.03;28.75;;;19.60;55.70;;;;;;5051010;28;20111;-74
2021/05/02 09:59:23;;;;;;;64.53;29.67;;;19.60;55.80;;;;;;5050170;28;20165;-71
2021/05/02 10:02:11;;;;;;;65.70;28.25;;;19.50;55.60;;;;;;5050456;28;20506;-73
2021/05/02 10:04:46;;;;;;;65.22;26.98;;;19.60;55.70;;;;;;5049379;28;20447;-76
2021/05/02 10:07:13;;;;;;;53.95;24.75;;;19.80;55.40;;;;;;5068238;28;20394;-77
2021/05/02 10:09:39;;;;;;;58.10;26.90;;;19.90;55.00;;;;;;5069641;28;20043;-76
2021/05/02 10:12:05;;;;;;;55.50;23.85;;;19.80;54.80;;;;;;5051992;28;20064;-77
2021/05/02 10:14:33;;;;;;;57.42;24.10;;;19.80;54.90;;;;;;5049151;28;20881;-72
2021/05/02 10:17:00;;;;;;;47.60;20.75;;;20.00;54.50;;;;;;5068662;28;20032;-74
2021/05/02 10:19:26;;;;;;;52.33;22.67;;;20.40;53.70;;;;;;5050640;28;20096;-74
2021/05/02 10:21:52;;;;;;;47.78;19.85;;;20.50;53.00;;;;;;5067527;28;20025;-74
2021/05/02 10:24:17;;;;;;;44.42;18.55;;;20.40;53.20;;;;;;5067487;28;20031;-75
2021/05/02 10:26:43;;;;;;;45.03;18.83;;;20.30;53.30;;;;;;5073166;28;20101;-71
2021/05/02 10:29:08;;;;;;;34.65;16.63;;;20.10;53.40;;;;;;5068208;28;20032;-74
2021/05/02 10:31:41;;;;;;;40.45;16.95;;;20.10;53.60;;;;;;5063286;28;20020;-73
2021/05/02 10:34:27;;;;;;;40.47;17.13;;;20.00;53.70;;;;;;5051083;28;20037;-74
2021/05/02 10:37:25;;;;;;;37.05;15.43;;;19.90;53.80;;;;;;5050091;28;20051;-71
2021/05/02 10:40:10;;;;;;;30.15;13.38;;;19.90;54.00;;;;;;5049207;28;20039;-75
2021/05/02 10:43:00;;;;;;;30.23;13.23;;;20.10;53.90;;;;;;5067291;28;20031;-74
2021/05/02 10:45:35;;;;;;;28.45;12.18;;;20.10;53.50;;;;;;5049657;28;20105;-74
2021/05/02 10:48:04;;;;;;;29.33;12.57;;;20.30;53.20;;;;;;5067213;28;20035;-75
2021/05/02 10:50:43;;;;;;;29.58;12.60;;;20.50;52.90;;;;;;5049052;28;20769;-74
2021/05/02 10:53:11;;;;;;;30.55;12.35;;;20.60;52.30;;;;;;5064644;28;20028;-74
2021/05/02 10:56:03;;;;;;;27.73;11.60;;;20.60;52.20;;;;;;5055017;28;20025;-76
2021/05/02 10:58:31;;;;;;;26.90;11.80;;;20.50;52.30;;;;;;5050043;28;20035;-73
2021/05/02 11:01:02;;;;;;;23.67;10.32;;;20.50;52.30;;;;;;5066943;28;20031;-76
2021/05/02 11:06:06;;;;;;;23.63;10.00;;;20.40;52.50;;;;;;5074242;28;20811;-76
2021/05/02 11:08:51;;;;;;;24.17;10.35;;;20.50;52.40;;;;;;5068783;28;20025;-72
2021/05/02 11:11:38;;;;;;;24.58;9.52;;;20.70;52.00;;;;;;5066867;28;20084;-75
2021/05/02 11:14:21;;;;;;;22.30;9.07;;;21.10;51.40;;;;;;5048450;28;20074;-76
2021/05/02 11:17:07;;;;;;;24.80;8.55;;;21.30;50.80;;;;;;5067017;28;20024;-74
2021/05/02 11:19:33;;;;;;;17.58;7.47;;;21.30;50.20;;;;;;5014576;28;20049;-74
2021/05/02 11:22:06;;;;;;;17.95;8.20;;;21.50;49.90;;;;;;5064139;28;20611;-74
2021/05/02 11:24:38;;;;;;;19.73;8.38;;;21.40;49.70;;;;;;5050863;28;20464;-73
2021/05/02 11:27:25;;;;;;;19.75;7.40;;;21.10;49.90;;;;;;5056077;28;20146;-75
2021/05/02 11:29:58;;;;;;;15.20;6.05;;;21.10;50.20;;;;;;5068272;28;20027;-74
2021/05/02 11:32:27;;;;;;;18.80;6.50;;;20.90;50.50;;;;;;5058298;28;20123;-75
2021/05/02 11:34:54;;;;;;;17.02;6.47;;;20.90;51.10;;;;;;5068088;28;21075;-73
2021/05/02 11:37:53;;;;;;;15.32;6.18;;;20.80;50.90;;;;;;5049397;28;20028;-74
2021/05/02 11:40:27;;;;;;;16.55;5.65;;;20.80;50.90;;;;;;5032858;28;20041;-74
2021/05/02 11:42:54;;;;;;;14.23;5.30;;;20.70;51.10;;;;;;5074546;28;20807;-71
2021/05/02 11:45:21;;;;;;;12.95;4.97;;;20.60;51.00;;;;;;5085976;28;20038;-71
2021/05/02 11:47:47;;;;;;;22.63;6.82;;;20.60;51.10;;;;;;5084771;28;20036;-71
2021/05/02 11:50:14;;;;;;;17.75;5.47;;;20.50;51.30;;;;;;5046054;28;20053;-72
2021/05/02 11:52:44;;;;;;;16.42;4.70;;;20.50;51.40;;;;;;5037366;28;20058;-72
2021/05/02 11:55:40;;;;;;;13.68;4.13;;;20.40;51.40;;;;;;5050349;28;20052;-71
2021/05/02 11:58:14;;;;;;;16.77;4.75;;;20.40;51.50;;;;;;5085700;28;20028;-72
2021/05/02 12:00:44;;;;;;;14.27;5.05;;;20.40;51.80;;;;;;5085352;28;20024;-72
2021/05/02 12:03:12;;;;;;;12.23;4.10;;;20.40;51.70;;;;;;5083909;28;20028;-70
2021/05/02 12:05:55;;;;;;;12.00;4.38;;;20.40;51.60;;;;;;5067555;28;20094;-71
2021/05/02 12:08:22;;;;;;;12.27;4.40;;;20.50;51.50;;;;;;5048337;28;20120;-72
2021/05/02 12:10:52;;;;;;;11.95;3.63;;;20.40;51.40;;;;;;5066410;28;20078;-72
2021/05/02 12:13:51;;;;;;;10.90;3.55;;;20.40;51.50;;;;;;5066197;28;20040;-70
2021/05/02 12:16:20;;;;;;;13.75;4.03;;;20.40;51.60;;;;;;5070598;28;20035;-71
2021/05/02 12:18:52;;;;;;;28.67;4.32;;;20.40;51.60;;;;;;5066243;28;20028;-77
2021/05/02 12:21:27;;;;;;;11.77;3.30;;;20.40;51.70;;;;;;5069571;28;20030;-77
2021/05/02 12:24:17;;;;;;;12.95;2.65;;;20.50;50.50;;;;;;5068704;28;20033;-73
2021/05/02 12:26:44;;;;;;;;;;;20.50;50.80;;;;;;5073487;28;20016;-72
2021/05/02 12:29:25;;;;;;;9.73;2.95;;;20.50;51.60;;;;;;5088607;28;20006;-73
2021/05/02 12:31:55;;;;;;;9.40;3.10;;;20.40;51.60;;;;;;5089764;28;20020;-72
2021/05/02 12:34:26;;;;;;;12.98;3.15;;;20.40;51.70;;;;;;5071844;28;20493;-72
2021/05/02 12:36:53;;;;;;;7.45;2.70;;;20.30;51.40;;;;;;5085730;22;20041;-67
2021/05/02 12:39:18;;;;;;;10.70;2.80;;;20.20;51.00;;;;;;5071315;28;20082;-67
2021/05/02 12:41:51;;;;;;;8.35;2.30;;;20.20;50.80;;;;;;5071224;28;20434;-67
2021/05/02 12:44:22;;;;;;;10.40;2.55;;;20.20;50.80;;;;;;5046935;28;20047;-66
2021/05/02 12:46:50;;;;;;;12.82;2.88;;;20.20;50.90;;;;;;5026290;28;20045;-68
2021/05/02 12:49:19;;;;;;;9.98;2.33;;;20.10;51.10;;;;;;5037114;28;20032;-67
2021/05/02 12:51:49;;;;;;;7.65;2.60;;;20.10;51.10;;;;;;5031684;28;20089;-67
2021/05/02 12:54:26;;;;;;;9.43;2.40;;;20.10;51.10;;;;;;5041915;28;20076;-68
2021/05/02 12:57:09;;;;;;;8.50;2.10;;;20.10;51.10;;;;;;5030635;28;20071;-66